Time;durP1;ratioP1;P1;durP2;ratioP2;P2;SDS_P1;SDS_P2;PMS_P1;PMS_P2;Temp;Humidity;BMP_temperature;BMP_pressure;BME280_temperature;BME280_humidity;BME280_pressure;Samples;Min_cycle;Max_cycle;Signal;HPM_P1;HPM_P2
2021/07/17 00:02:13;;;;;;;1.80;1.10;;;;;;;17.80;73.73;93109.53;2052122;69;20142;-81
2021/07/17 00:04:39;;;;;;;5.82;1.00;;;;;;;17.83;71.22;93110.38;2051418;69;20166;-73
2021/07/17 00:07:05;;;;;;;2.25;1.00;;;;;;;17.98;71.25;93106.69;2051654;69;20142;-73
2021/07/17 00:09:30;;;;;;;1.58;1.17;;;;;;;17.86;73.23;93106.94;2065332;69;20146;-73
2021/07/17 00:11:56;;;;;;;2.00;1.30;;;;;;;17.83;72.81;93105.41;2052383;69;20130;-73
2021/07/17 00:14:21;;;;;;;5.00;1.17;;;;;;;17.77;70.70;93105.13;2051863;69;20629;-73
2021/07/17 00:16:47;;;;;;;2.42;1.60;;;;;;;17.49;74.17;93104.69;2052022;70;20153;-73
2021/07/17 00:19:13;;;;;;;3.45;1.10;;;;;;;17.62;73.90;93103.81;2048225;70;20159;-75
2021/07/17 00:21:39;;;;;;;7.35;1.15;;;;;;;17.74;72.97;93103.63;2061393;69;20170;-78
2021/07/17 00:24:05;;;;;;;4.75;1.02;;;;;;;17.74;73.87;93104.34;2048751;70;20201;-74
2021/07/17 00:26:31;;;;;;;2.50;0.90;;;;;;;17.75;73.21;93102.94;2049080;69;20203;-75
2021/07/17 00:28:57;;;;;;;2.97;1.00;;;;;;;17.75;70.79;93099.38;2048529;69;20580;-74
2021/07/17 00:31:24;;;;;;;4.22;1.30;;;;;;;17.76;72.14;93103.69;2061510;69;20214;-74
2021/07/17 00:33:49;;;;;;;5.38;1.10;;;;;;;17.66;73.29;93097.56;2061766;69;20170;-75
2021/07/17 00:36:15;;;;;;;3.13;1.08;;;;;;;17.78;69.16;93095.97;2048856;69;20629;-74
2021/07/17 00:38:41;;;;;;;3.47;1.08;;;;;;;17.77;72.18;93094.47;2048830;69;20154;-74
2021/07/17 00:41:09;;;;;;;2.38;1.00;;;;;;;17.70;72.16;93087.06;2048631;70;20146;-74
2021/07/17 00:43:38;;;;;;;3.65;1.00;;;;;;;17.75;72.53;93090.84;2048863;69;20157;-73
2021/07/17 00:46:04;;;;;;;3.10;1.00;;;;;;;17.67;72.29;93084.78;2048756;70;20614;-74
2021/07/17 00:48:30;;;;;;;3.80;1.10;;;;;;;17.74;71.53;93080.84;2048916;69;20257;-75
2021/07/17 00:50:57;;;;;;;1.48;0.93;;;;;;;17.79;69.99;93073.91;2048598;70;20150;-74
2021/07/17 00:53:22;;;;;;;2.97;1.10;;;;;;;17.67;72.33;93074.13;2048446;70;20161;-74
2021/07/17 00:55:50;;;;;;;4.82;1.00;;;;;;;17.56;71.79;93080.06;2048648;70;20146;-74
2021/07/17 00:58:27;;;;;;;1.38;1.00;;;;;;;17.54;71.68;93078.56;2048549;70;20638;-74
2021/07/17 01:00:54;;;;;;;6.13;1.80;;;;;;;17.58;72.60;93072.31;2048623;70;20163;-73
2021/07/17 01:03:20;;;;;;;3.45;1.77;;;;;;;17.58;72.69;93072.31;2048581;69;20261;-73
2021/07/17 01:05:48;;;;;;;5.72;1.30;;;;;;;17.47;73.76;93076.88;2049074;70;20233;-74
2021/07/17 01:08:15;;;;;;;3.95;1.27;;;;;;;17.60;71.17;93077.38;2048523;69;20515;-82
2021/07/17 01:10:42;;;;;;;4.20;1.10;;;;;;;17.54;73.41;93077.84;2049022;70;20182;-78
2021/07/17 01:13:07;;;;;;;3.47;1.25;;;;;;;17.57;72.43;93085.09;2048170;70;20238;-73
2021/07/17 01:15:33;;;;;;;2.20;1.15;;;;;;;17.47;72.80;93084.69;2048651;70;20490;-73
2021/07/17 01:18:03;;;;;;;4.88;1.45;;;;;;;17.59;71.35;93078.75;2048689;69;20182;-74
2021/07/17 01:20:31;;;;;;;1.52;1.33;;;;;;;17.53;74.05;93079.97;2048765;70;20465;-74
2021/07/17 01:22:58;;;;;;;2.97;1.10;;;;;;;17.52;71.68;93078.50;2048719;70;20139;-74
2021/07/17 01:25:29;;;;;;;1.27;1.15;;;;;;;17.61;72.38;93073.88;2049045;69;20142;-83
2021/07/17 01:27:57;;;;;;;1.55;1.08;;;;;;;17.76;70.25;93075.22;2048949;70;20142;-74
2021/07/17 01:30:27;;;;;;;2.00;1.25;;;;;;;17.59;72.72;93073.78;2048923;69;20506;-75
2021/07/17 01:32:56;;;;;;;1.38;0.98;;;;;;;17.53;73.36;93071.44;2061908;69;20229;-83
2021/07/17 01:35:23;;;;;;;4.07;1.23;;;;;;;17.28;74.06;93071.81;2049352;70;20173;-73
2021/07/17 01:37:49;;;;;;;4.28;1.48;;;;;;;17.50;72.31;93077.69;2048303;70;20585;-73
2021/07/17 01:40:19;;;;;;;3.55;1.10;;;;;;;17.53;73.44;93077.13;2048691;69;20161;-77
2021/07/17 01:42:46;;;;;;;5.20;1.20;;;;;;;17.58;73.03;93077.28;2048893;70;20159;-75
2021/07/17 01:45:23;;;;;;;4.32;1.30;;;;;;;17.50;73.80;93067.06;2048643;69;20257;-74
2021/07/17 01:47:49;;;;;;;4.70;1.30;;;;;;;17.54;72.94;93069.31;2048793;70;20178;-77
2021/07/17 01:50:14;;;;;;;4.07;1.10;;;;;;;17.55;71.32;93067.94;2048762;69;20595;-77
2021/07/17 01:52:40;;;;;;;2.97;1.20;;;;;;;17.54;70.84;93075.72;2048795;70;20162;-78
2021/07/17 01:55:07;;;;;;;2.60;1.25;;;;;;;17.58;72.61;93071.59;2048853;70;20182;-79
2021/07/17 01:57:33;;;;;;;2.13;1.55;;;;;;;17.60;73.08;93074.53;2048946;70;20147;-77
2021/07/17 01:59:59;;;;;;;3.92;1.20;;;;;;;17.52;73.45;93080.63;2048913;70;20181;-76
2021/07/17 02:02:24;;;;;;;4.90;1.13;;;;;;;17.55;73.09;93082.19;2048693;69;20534;-78
2021/07/17 02:04:50;;;;;;;5.78;1.20;;;;;;;17.50;71.79;93080.53;2048912;70;20170;-77
2021/07/17 02:07:15;;;;;;;2.33;1.17;;;;;;;17.50;73.91;93081.28;2048826;70;20146;-81
2021/07/17 02:09:41;;;;;;;2.33;1.30;;;;;;;17.47;73.00;93084.69;2048789;70;20135;-75
2021/07/17 02:12:07;;;;;;;1.98;1.60;;;;;;;17.41;74.33;93078.72;2048809;69;20138;-77
2021/07/17 02:14:39;;;;;;;4.18;1.52;;;;;;;17.46;72.82;93089.66;2048773;70;20150;-76
2021/07/17 02:17:06;;;;;;;2.10;1.40;;;;;;;17.48;73.41;93078.34;2048695;69;20143;-76
2021/07/17 02:19:32;;;;;;;5.90;1.40;;;;;;;17.48;74.09;93089.72;2048744;70;20594;-76
2021/07/17 02:21:58;;;;;;;3.13;1.42;;;;;;;17.47;75.03;93085.41;2048804;70;20220;-74
2021/07/17 02:24:24;;;;;;;3.47;1.38;;;;;;;17.45;75.43;93093.13;2048788;70;20214;-73
2021/07/17 02:26:49;;;;;;;4.72;1.38;;;;;;;17.42;75.30;93085.91;2048967;69;20182;-76
2021/07/17 02:29:15;;;;;;;2.00;1.50;;;;;;;17.39;75.37;93090.03;2048845;69;20222;-75
2021/07/17 02:31:41;;;;;;;3.47;1.40;;;;;;;17.33;75.80;93084.81;2048641;70;20155;-80
2021/07/17 02:34:09;;;;;;;5.10;1.50;;;;;;;17.41;74.88;93090.09;2048840;70;20143;-74
2021/07/17 02:36:35;;;;;;;2.50;1.40;;;;;;;17.44;74.10;93083.84;2048732;70;20186;-75
2021/07/17 02:39:02;;;;;;;1.85;1.35;;;;;;;17.52;72.76;93094.84;2048700;70;20255;-75
2021/07/17 02:41:27;;;;;;;1.92;1.58;;;;;;;17.35;74.56;93084.16;2048735;70;20226;-74
2021/07/17 02:43:54;;;;;;;2.13;1.58;;;;;;;17.27;76.12;93084.56;2048723;69;20152;-74
2021/07/17 02:46:20;;;;;;;3.72;1.52;;;;;;;17.34;74.96;93077.75;2048698;70;20206;-73
2021/07/17 02:48:46;;;;;;;2.78;1.38;;;;;;;17.34;76.00;93077.75;2048815;70;20142;-76
2021/07/17 02:51:12;;;;;;;4.45;1.75;;;;;;;17.33;76.00;93081.97;2048737;70;20177;-73
2021/07/17 02:53:38;;;;;;;3.83;1.42;;;;;;;17.39;74.94;93090.75;2048711;69;20228;-77
2021/07/17 02:56:04;;;;;;;3.45;1.40;;;;;;;17.40;75.41;93083.69;2048802;70;20635;-74
2021/07/17 02:58:29;;;;;;;2.75;1.50;;;;;;;17.39;75.29;93081.50;2048679;69;20142;-75
2021/07/17 03:00:55;;;;;;;2.63;1.50;;;;;;;17.36;72.56;93080.66;2048673;70;20582;-76
2021/07/17 03:03:22;;;;;;;2.15;1.60;;;;;;;17.49;72.04;93076.94;2048767;70;20179;-76
2021/07/17 03:05:48;;;;;;;3.47;1.55;;;;;;;17.46;73.59;93075.41;2049192;70;20137;-77
2021/07/17 03:08:16;;;;;;;4.05;1.80;;;;;;;17.48;74.23;93080.44;2062104;69;20592;-77
2021/07/17 03:10:42;;;;;;;2.78;1.50;;;;;;;17.20;76.36;93085.69;2049186;70;20265;-78
2021/07/17 03:13:09;;;;;;;3.83;1.73;;;;;;;17.15;76.81;93084.06;2049189;70;20673;-76
2021/07/17 03:15:35;;;;;;;4.93;1.70;;;;;;;17.18;77.29;93082.75;2059319;69;20150;-76
2021/07/17 03:18:00;;;;;;;5.15;1.80;;;;;;;17.25;76.33;93076.69;2049058;69;20163;-76
2021/07/17 03:20:26;;;;;;;3.13;1.60;;;;;;;17.21;74.76;93067.97;2049193;70;20609;-73
2021/07/17 03:22:52;;;;;;;1.63;1.50;;;;;;;17.27;76.14;93065.41;2062110;69;20607;-74
2021/07/17 03:25:18;;;;;;;6.32;1.67;;;;;;;17.31;75.23;93049.84;2049131;69;20149;-75
2021/07/17 03:27:43;;;;;;;2.92;1.50;;;;;;;17.29;74.64;93061.91;2049271;69;20558;-76
2021/07/17 03:30:10;;;;;;;2.78;1.45;;;;;;;17.28;76.76;93046.22;2062027;69;20155;-79
2021/07/17 03:32:35;;;;;;;1.92;1.50;;;;;;;17.24;76.99;93051.72;2049023;70;20220;-78
2021/07/17 03:35:01;;;;;;;3.90;1.70;;;;;;;17.24;75.20;93048.88;2049159;70;20227;-75
2021/07/17 03:37:27;;;;;;;6.20;1.63;;;;;;;17.25;77.44;93041.81;2049248;70;20514;-76
2021/07/17 03:39:52;;;;;;;3.92;1.60;;;;;;;17.16;77.00;93057.81;2049122;70;20256;-75
2021/07/17 03:42:18;;;;;;;5.32;1.83;;;;;;;17.13;75.77;93059.09;2049122;69;20145;-73
2021/07/17 03:44:44;;;;;;;3.55;2.03;;;;;;;17.17;77.30;93052.84;2049224;70;20568;-77
2021/07/17 03:47:09;;;;;;;4.15;1.63;;;;;;;17.07;77.50;93058.09;2048978;69;20241;-74
2021/07/17 03:49:35;;;;;;;4.57;1.60;;;;;;;17.21;75.11;93062.28;2049263;70;20644;-75
2021/07/17 03:52:01;;;;;;;6.85;2.47;;;;;;;17.28;74.46;93061.16;2049054;70;20228;-77
2021/07/17 03:54:26;;;;;;;3.00;1.92;;;;;;;17.23;77.36;93058.81;2049296;70;20146;-75
2021/07/17 03:56:52;;;;;;;3.58;2.00;;;;;;;17.23;76.11;93068.06;2049227;70;20155;-75
2021/07/17 03:59:18;;;;;;;2.50;1.75;;;;;;;17.21;76.85;93062.28;2049147;70;20150;-77
2021/07/17 04:01:43;;;;;;;3.15;2.00;;;;;;;17.24;76.54;93057.41;2049052;70;20146;-76
2021/07/17 04:04:12;;;;;;;3.40;1.90;;;;;;;17.17;77.33;93058.53;2061990;69;20159;-80
2021/07/17 04:06:37;;;;;;;2.45;1.55;;;;;;;17.14;77.89;93054.16;2049065;69;20629;-76
2021/07/17 04:09:03;;;;;;;2.33;1.90;;;;;;;17.17;76.46;93064.22;2061967;69;20131;-76
2021/07/17 04:11:29;;;;;;;2.85;1.70;;;;;;;17.12;76.54;93056.91;2049032;70;20591;-77
2021/07/17 04:13:54;;;;;;;4.43;1.90;;;;;;;17.13;77.71;93049.81;2048997;70;20151;-75
2021/07/17 04:16:20;;;;;;;4.05;1.77;;;;;;;17.14;75.79;93060.56;2049037;70;20183;-77
2021/07/17 04:18:46;;;;;;;2.72;1.55;;;;;;;17.16;77.52;93059.91;2049034;69;20166;-75
2021/07/17 04:21:12;;;;;;;1.77;1.60;;;;;;;17.15;76.30;93059.19;2049215;70;20587;-79
2021/07/17 04:23:38;;;;;;;3.83;1.80;;;;;;;17.24;75.71;93061.00;2062005;69;20212;-76
2021/07/17 04:26:04;;;;;;;2.65;1.63;;;;;;;17.18;78.00;93060.00;2049095;70;20154;-78
2021/07/17 04:28:30;;;;;;;3.95;1.90;;;;;;;17.22;76.96;93066.59;2049217;70;20153;-80
2021/07/17 04:30:56;;;;;;;3.88;1.70;;;;;;;17.23;72.66;93061.66;2062134;69;20208;-80
2021/07/17 04:33:21;;;;;;;2.65;1.58;;;;;;;17.25;73.74;93065.28;2048900;70;20157;-77
2021/07/17 04:35:47;;;;;;;2.00;1.60;;;;;;;17.26;76.03;93066.03;2048993;69;20139;-78
2021/07/17 04:38:13;;;;;;;5.63;1.65;;;;;;;17.23;77.16;93064.50;2049113;70;20170;-76
2021/07/17 04:40:38;;;;;;;5.22;1.50;;;;;;;17.18;77.35;93062.84;2049039;69;20166;-82
2021/07/17 04:43:04;;;;;;;5.07;2.05;;;;;;;17.09;74.99;93067.47;2049006;69;20226;-78
2021/07/17 04:45:30;;;;;;;3.50;1.85;;;;;;;17.18;77.73;93072.13;2049003;70;20596;-77
2021/07/17 04:47:55;;;;;;;3.78;1.50;;;;;;;17.21;77.78;93075.78;2048896;69;20161;-77
2021/07/17 04:50:21;;;;;;;3.30;1.70;;;;;;;17.23;76.87;93082.28;2061974;69;20174;-77
2021/07/17 04:52:46;;;;;;;5.13;1.55;;;;;;;17.16;74.64;93074.13;2048984;70;20491;-78
2021/07/17 04:55:12;;;;;;;1.98;1.52;;;;;;;17.13;78.51;93075.41;2049013;70;20158;-75
2021/07/17 04:57:40;;;;;;;1.70;1.60;;;;;;;17.22;74.36;93072.28;2049095;70;20139;-77
2021/07/17 05:00:06;;;;;;;3.55;1.92;;;;;;;17.27;73.82;93070.34;2048921;70;20581;-76
2021/07/17 05:02:32;;;;;;;6.00;2.10;;;;;;;17.34;77.24;93074.19;2048858;70;20158;-81
2021/07/17 05:04:57;;;;;;;5.18;1.70;;;;;;;17.36;75.07;93074.97;2048928;70;20154;-82
2021/07/17 05:07:23;;;;;;;3.63;1.75;;;;;;;17.39;75.46;93072.97;2049254;69;20170;-81
2021/07/17 05:09:50;;;;;;;3.15;1.67;;;;;;;17.36;76.59;93069.28;2049517;70;20174;-77
2021/07/17 05:12:15;;;;;;;3.03;2.30;;;;;;;16.99;79.69;93069.88;2049266;70;20241;-79
2021/07/17 05:14:41;;;;;;;2.13;1.90;;;;;;;16.73;80.23;93063.78;2049082;69;20502;-78
2021/07/17 05:17:07;;;;;;;5.15;2.40;;;;;;;16.84;78.66;93064.94;2048877;70;20198;-83
2021/07/17 05:19:32;;;;;;;6.32;2.03;;;;;;;17.13;75.65;93069.72;2049069;70;20154;-81
2021/07/17 05:21:58;;;;;;;3.17;2.17;;;;;;;17.03;79.32;93059.38;2048972;70;20541;-80
2021/07/17 05:24:23;;;;;;;3.22;1.77;;;;;;;17.34;74.06;93071.34;2049056;70;20134;-76
2021/07/17 05:26:49;;;;;;;3.65;1.90;;;;;;;17.39;76.02;93061.56;2048796;69;20256;-78
2021/07/17 05:29:14;;;;;;;2.95;1.85;;;;;;;17.38;76.86;93065.81;2048949;69;20154;-81
2021/07/17 05:31:40;;;;;;;3.85;2.03;;;;;;;17.49;78.21;93071.25;2048910;69;20186;-79
2021/07/17 05:34:05;;;;;;;2.60;1.85;;;;;;;17.60;75.06;93060.31;2048891;70;20142;-74
2021/07/17 05:36:31;;;;;;;1.92;1.73;;;;;;;17.67;75.15;93059.16;2048899;69;20224;-78
2021/07/17 05:38:57;;;;;;;3.13;1.85;;;;;;;17.51;78.27;93074.19;2049024;70;20155;-75
2021/07/17 05:41:22;;;;;;;5.07;2.30;;;;;;;17.39;77.85;93068.00;2048874;70;20162;-75
2021/07/17 05:43:48;;;;;;;2.83;2.00;;;;;;;17.64;74.95;93071.84;2048898;70;20178;-79
2021/07/17 05:46:14;;;;;;;2.55;2.00;;;;;;;17.65;77.30;93071.19;2048851;70;20145;-78
2021/07/17 05:48:39;;;;;;;2.53;2.03;;;;;;;17.72;76.46;93069.31;2048834;70;20154;-78
2021/07/17 05:51:05;;;;;;;2.95;2.00;;;;;;;17.70;77.03;93072.09;2061781;69;20153;-79
2021/07/17 05:53:30;;;;;;;2.42;1.80;;;;;;;17.81;74.42;93076.84;2061674;69;20182;-78
2021/07/17 05:55:56;;;;;;;3.90;1.80;;;;;;;17.83;72.04;93079.78;2048882;70;20162;-75
2021/07/17 05:58:22;;;;;;;3.63;2.10;;;;;;;17.88;72.90;93087.09;2048987;70;20317;-77
2021/07/17 06:00:47;;;;;;;2.35;1.63;;;;;;;17.87;72.39;93091.34;2049091;70;20656;-76
2021/07/17 06:03:13;;;;;;;3.00;2.33;;;;;;;17.87;72.66;93090.56;2048741;70;20604;-78
2021/07/17 06:05:38;;;;;;;2.75;1.80;;;;;;;17.85;72.53;93099.06;2048863;70;20151;-78
2021/07/17 06:08:04;;;;;;;2.33;2.13;;;;;;;17.83;75.76;93101.81;2048841;69;20170;-76
2021/07/17 06:10:30;;;;;;;1.67;1.50;;;;;;;17.82;72.50;93094.66;2048844;70;20146;-77
2021/07/17 06:12:56;;;;;;;3.42;1.80;;;;;;;18.00;73.42;93095.38;2048831;69;20265;-77
2021/07/17 06:15:21;;;;;;;1.90;1.58;;;;;;;18.00;70.10;93087.56;2048846;69;20582;-76
2021/07/17 06:17:52;;;;;;;2.03;1.67;;;;;;;18.12;72.30;93081.63;2048909;70;20161;-74
2021/07/17 06:20:20;;;;;;;2.13;1.80;;;;;;;18.01;76.05;93091.88;2048771;69;20138;-75
2021/07/17 06:22:45;;;;;;;4.32;2.08;;;;;;;18.19;74.20;93099.66;2048911;69;20184;-77
2021/07/17 06:25:11;;;;;;;2.00;1.73;;;;;;;18.15;72.44;93102.38;2061774;69;20170;-74
2021/07/17 06:27:37;;;;;;;2.33;2.10;;;;;;;18.23;75.55;93108.38;2048843;70;20230;-76
2021/07/17 06:30:03;;;;;;;2.92;1.88;;;;;;;18.35;70.45;93105.28;2048754;69;20533;-76
2021/07/17 06:32:28;;;;;;;3.42;2.10;;;;;;;18.20;74.29;93104.00;2048715;70;20183;-76
2021/07/17 06:34:54;;;;;;;2.97;2.25;;;;;;;18.32;75.28;93093.06;2048652;69;20153;-76
2021/07/17 06:37:22;;;;;;;2.60;2.00;;;;;;;17.89;77.19;93088.56;2048888;69;20240;-73
2021/07/17 06:39:48;;;;;;;2.42;2.00;;;;;;;18.22;74.26;93095.53;2049157;70;20235;-75
2021/07/17 06:42:13;;;;;;;1.90;1.70;;;;;;;17.99;75.63;93094.66;2049188;69;20606;-74
2021/07/17 06:44:39;;;;;;;2.22;1.95;;;;;;;17.95;75.02;93085.94;2049235;70;20146;-76
2021/07/17 06:47:04;;;;;;;6.10;2.20;;;;;;;18.19;72.41;93085.41;2049076;70;20154;-77
2021/07/17 06:49:30;;;;;;;3.42;1.90;;;;;;;18.42;73.16;93082.06;2049188;70;20163;-73
2021/07/17 06:51:56;;;;;;;2.92;1.88;;;;;;;18.45;73.12;93082.84;2049231;70;20146;-74
2021/07/17 06:54:22;;;;;;;2.30;1.83;;;;;;;18.43;70.42;93074.97;2062224;69;20150;-74
2021/07/17 06:56:47;;;;;;;1.77;1.67;;;;;;;18.45;73.71;93075.03;2049289;69;20138;-75
2021/07/17 06:59:13;;;;;;;4.25;1.70;;;;;;;18.52;74.37;93076.75;2049212;69;20154;-76
2021/07/17 07:01:40;;;;;;;2.08;1.60;;;;;;;18.54;73.30;93076.06;2049099;69;20135;-73
2021/07/17 07:04:06;;;;;;;5.85;1.83;;;;;;;18.57;72.71;93066.22;2049242;70;20506;-74
2021/07/17 07:06:31;;;;;;;1.98;1.65;;;;;;;18.57;72.05;93074.78;2049194;69;20142;-75
2021/07/17 07:08:57;;;;;;;2.08;1.88;;;;;;;18.63;73.25;93074.97;2049173;69;20198;-75
2021/07/17 07:11:23;;;;;;;1.75;1.65;;;;;;;18.57;72.56;93076.88;2049290;70;20497;-74
2021/07/17 07:13:48;;;;;;;2.40;1.70;;;;;;;18.63;70.03;93071.41;2062095;69;20150;-77
2021/07/17 07:16:14;;;;;;;2.13;1.92;;;;;;;18.58;74.06;93073.38;2049127;70;20233;-76
2021/07/17 07:18:39;;;;;;;2.58;1.80;;;;;;;18.57;72.95;93080.47;2062102;69;20157;-74
2021/07/17 07:21:06;;;;;;;3.17;1.90;;;;;;;18.48;76.73;93085.13;2049118;69;20170;-74
2021/07/17 07:23:32;;;;;;;2.22;1.92;;;;;;;18.45;71.75;93085.72;2049133;70;20222;-74
2021/07/17 07:25:58;;;;;;;2.35;1.70;;;;;;;18.44;70.10;93082.13;2049281;70;20153;-75
2021/07/17 07:28:23;;;;;;;1.80;1.70;;;;;;;18.48;74.01;93085.13;2049296;70;20143;-77
2021/07/17 07:30:49;;;;;;;2.28;1.65;;;;;;;18.49;69.44;93083.75;2049505;69;20134;-75
2021/07/17 07:33:15;;;;;;;3.42;1.65;;;;;;;18.58;72.76;93084.06;2048986;69;20231;-75
2021/07/17 07:35:40;;;;;;;1.55;1.45;;;;;;;18.41;70.68;93091.97;2049137;69;20173;-74
2021/07/17 07:38:06;;;;;;;2.55;1.65;;;;;;;18.45;73.35;93091.41;2049481;70;20262;-74
2021/07/17 07:40:31;;;;;;;2.28;1.85;;;;;;;18.39;72.71;93091.91;2049156;70;20158;-75
2021/07/17 07:42:57;;;;;;;1.70;1.60;;;;;;;18.45;72.23;93083.59;2049165;70;20158;-73
2021/07/17 07:45:23;;;;;;;2.97;1.60;;;;;;;18.58;72.92;93095.47;2049084;70;20149;-74
2021/07/17 07:47:49;;;;;;;2.58;1.95;;;;;;;18.67;74.31;93094.38;2048927;70;20594;-76
2021/07/17 07:50:15;;;;;;;2.20;2.00;;;;;;;18.53;70.45;93094.56;2048849;70;20139;-77
2021/07/17 07:52:41;;;;;;;5.88;1.90;;;;;;;18.56;71.04;93096.13;2048960;69;20162;-74
2021/07/17 07:55:08;;;;;;;1.90;1.70;;;;;;;18.51;71.02;93098.09;2048999;70;20150;-78
2021/07/17 07:57:34;;;;;;;2.40;2.20;;;;;;;18.44;73.46;93092.81;2049127;70;20159;-74
2021/07/17 08:00:00;;;;;;;2.13;1.92;;;;;;;18.56;73.65;93101.81;2049017;70;20534;-76
2021/07/17 08:02:26;;;;;;;1.75;1.65;;;;;;;18.58;71.78;93101.88;2048928;69;20135;-78
2021/07/17 08:04:53;;;;;;;2.83;1.70;;;;;;;18.60;73.16;93109.78;2049008;70;20170;-75
2021/07/17 08:07:18;;;;;;;3.08;1.60;;;;;;;18.50;76.15;93110.84;2049023;69;20228;-74
2021/07/17 08:09:44;;;;;;;2.08;1.58;;;;;;;18.58;75.96;93116.16;2049127;70;20163;-74
2021/07/17 08:12:09;;;;;;;3.33;1.60;;;;;;;18.58;71.42;93106.84;2048993;69;20151;-74
2021/07/17 08:14:35;;;;;;;3.20;2.70;;;;;;;18.86;75.10;93107.19;2048970;69;20126;-74
2021/07/17 08:17:07;;;;;;;4.25;3.05;;;;;;;19.00;72.67;93102.00;2048903;69;20237;-78
2021/07/17 08:19:33;;;;;;;2.70;2.50;;;;;;;18.94;67.55;93099.69;2049066;70;20231;-75
2021/07/17 08:21:58;;;;;;;5.07;3.05;;;;;;;18.86;71.49;93104.34;2049020;69;20154;-76
2021/07/17 08:24:24;;;;;;;2.83;2.63;;;;;;;18.89;73.47;93103.78;2061941;69;20212;-74
2021/07/17 08:26:50;;;;;;;3.63;2.50;;;;;;;18.86;73.14;93104.34;2048966;69;20238;-76
2021/07/17 08:29:15;;;;;;;3.80;3.10;;;;;;;18.63;76.00;93088.50;2049216;69;20184;-78
2021/07/17 08:31:41;;;;;;;5.13;2.60;;;;;;;18.96;75.74;93093.31;2048949;70;20583;-76
2021/07/17 08:34:06;;;;;;;3.13;2.67;;;;;;;19.27;72.90;93092.25;2048955;70;20150;-74
2021/07/17 08:36:33;;;;;;;3.60;2.55;;;;;;;19.41;70.96;93104.16;2048979;70;20150;-75
2021/07/17 08:38:58;;;;;;;3.30;2.53;;;;;;;19.65;71.87;93095.72;2049014;69;20591;-75
2021/07/17 08:41:26;;;;;;;3.92;2.70;;;;;;;19.66;68.07;93096.47;2049099;70;20153;-76
2021/07/17 08:43:54;;;;;;;2.72;2.53;;;;;;;19.57;69.63;93097.56;2050519;70;20582;-78
2021/07/17 08:46:21;;;;;;;2.58;2.38;;;;;;;19.54;68.12;93088.19;2050340;70;20705;-77
2021/07/17 08:48:49;;;;;;;2.55;2.35;;;;;;;19.91;71.74;93100.84;2049278;70;20158;-79
2021/07/17 08:51:15;;;;;;;2.75;2.22;;;;;;;19.92;68.18;93100.16;2049127;70;20158;-77
2021/07/17 08:53:42;;;;;;;6.90;3.80;;;;;;;20.03;71.02;93104.84;2048950;70;20614;-86
2021/07/17 08:56:09;;;;;;;6.18;3.45;;;;;;;19.97;69.92;93101.03;2049167;70;20606;-81
2021/07/17 08:58:34;;;;;;;3.95;2.90;;;;;;;19.88;69.55;93100.03;2049088;70;20178;-81
2021/07/17 09:01:02;;;;;;;4.35;2.60;;;;;;;19.79;70.85;93104.78;2049076;70;20182;-82
2021/07/17 09:03:29;;;;;;;3.42;2.05;;;;;;;19.75;66.00;93101.06;2062002;69;20204;-82
2021/07/17 09:05:54;;;;;;;3.83;2.70;;;;;;;19.88;69.11;93105.03;2049011;70;20230;-79
2021/07/17 09:08:21;;;;;;;4.90;2.75;;;;;;;19.64;71.49;93099.25;2049033;70;20148;-80
2021/07/17 09:10:49;;;;;;;3.40;2.22;;;;;;;20.10;69.77;93100.03;2049030;70;20220;-78
2021/07/17 09:13:32;;;;;;;7.05;2.40;;;;;;;20.29;70.56;93099.19;2048944;69;20230;-79
2021/07/17 09:16:09;;;;;;;3.00;2.80;;;;;;;20.04;69.95;93100.56;2062090;69;20212;-79
2021/07/17 09:18:47;;;;;;;3.00;2.30;;;;;;;19.91;68.53;93101.56;2048953;69;20392;-77
2021/07/17 09:21:20;;;;;;;3.92;3.60;;;;;;;19.88;71.25;93094.31;2048933;70;20138;-75
2021/07/17 09:24:06;;;;;;;;;;;;;;;19.93;71.44;93084.50;2049219;70;20209;-75
2021/07/17 09:26:35;;;;;;;3.65;2.00;;;;;;;19.85;71.83;93087.09;2048979;69;20066;-75
2021/07/17 09:29:04;;;;;;;2.15;1.95;;;;;;;20.13;71.19;93089.41;2049038;70;20200;-75
2021/07/17 09:31:32;;;;;;;3.25;2.30;;;;;;;20.55;70.02;93078.56;2048759;69;20590;-75
2021/07/17 09:34:12;;;;;;;3.97;2.35;;;;;;;21.03;69.35;93075.66;2048954;70;20127;-80
2021/07/17 09:36:57;;;;;;;3.13;2.40;;;;;;;20.74;68.91;93068.38;2048999;69;20216;-78
2021/07/17 09:39:28;;;;;;;2.28;2.08;;;;;;;20.27;70.69;93082.00;2048886;70;20257;-77
2021/07/17 09:42:00;;;;;;;2.40;2.20;;;;;;;20.50;70.35;93080.56;2048941;69;20146;-76
2021/07/17 09:44:27;;;;;;;2.30;2.10;;;;;;;20.22;71.60;93073.97;2048915;70;20146;-76
2021/07/17 09:46:53;;;;;;;5.20;2.72;;;;;;;19.85;71.61;93077.81;2048825;70;20147;-84
2021/07/17 09:49:21;;;;;;;2.50;2.30;;;;;;;20.38;69.58;93076.59;2048927;70;20661;-74
2021/07/17 09:51:47;;;;;;;2.78;2.50;;;;;;;20.52;69.23;93074.19;2048864;70;20157;-76
2021/07/17 09:54:13;;;;;;;2.42;2.22;;;;;;;20.69;68.36;93076.13;2048782;70;20154;-74
2021/07/17 09:56:41;;;;;;;3.33;2.00;;;;;;;20.79;67.75;93070.69;2048920;69;20158;-78
2021/07/17 09:59:09;;;;;;;4.03;2.30;;;;;;;20.79;67.03;93081.41;2048746;69;20590;-74
2021/07/17 10:01:37;;;;;;;2.85;2.30;;;;;;;20.70;68.18;93077.56;2048692;69;20177;-75
2021/07/17 10:04:08;;;;;;;2.80;2.60;;;;;;;20.60;69.31;93070.84;2048788;69;20157;-75
2021/07/17 10:06:40;;;;;;;2.83;2.47;;;;;;;20.62;68.63;93074.50;2048908;70;20170;-78
2021/07/17 10:09:12;;;;;;;3.10;2.80;;;;;;;20.49;68.47;93073.41;2048927;70;20142;-81
2021/07/17 10:11:38;;;;;;;4.40;3.35;;;;;;;20.41;67.09;93073.13;2048713;69;20697;-86
2021/07/17 10:14:18;;;;;;;3.88;3.33;;;;;;;20.18;71.11;93074.56;2048938;70;20154;-83
2021/07/17 10:16:47;;;;;;;3.90;2.97;;;;;;;19.88;72.10;93077.19;2048846;69;20231;-79
2021/07/17 10:19:14;;;;;;;5.57;3.20;;;;;;;19.94;70.51;93080.25;2048757;70;20244;-76
2021/07/17 10:21:40;;;;;;;3.70;2.60;;;;;;;20.09;69.53;93080.69;2048874;69;20150;-74
2021/07/17 10:24:06;;;;;;;3.65;2.72;;;;;;;20.18;68.20;93074.56;2048864;70;20522;-76
2021/07/17 10:26:31;;;;;;;3.00;2.72;;;;;;;20.16;69.13;93080.22;2048884;69;20169;-75
2021/07/17 10:29:06;;;;;;;5.28;3.00;;;;;;;20.18;71.42;93079.56;2048836;70;20159;-80
2021/07/17 10:31:32;;;;;;;3.90;3.05;;;;;;;19.86;73.17;93084.97;2048672;70;20174;-75
2021/07/17 10:33:58;;;;;;;4.43;3.08;;;;;;;20.05;71.87;93081.31;2047538;70;20663;-74
2021/07/17 10:36:25;;;;;;;4.03;2.90;;;;;;;19.99;71.93;93081.13;2048857;70;20202;-77
2021/07/17 10:38:54;;;;;;;3.33;3.00;;;;;;;20.10;71.65;93085.00;2049993;70;20150;-74
2021/07/17 10:41:22;;;;;;;3.53;2.63;;;;;;;20.14;69.01;93080.16;2051117;70;20154;-73
2021/07/17 10:43:52;;;;;;;3.22;2.92;;;;;;;20.14;70.40;93085.88;2051051;70;20146;-73
2021/07/17 10:46:30;;;;;;;2.90;2.60;;;;;;;20.17;70.35;93084.56;2051394;70;20186;-75
2021/07/17 10:48:57;;;;;;;3.20;2.78;;;;;;;20.20;71.57;93085.31;2051850;70;20133;-73
2021/07/17 10:51:23;;;;;;;6.68;2.97;;;;;;;20.11;74.32;93086.47;2051806;70;20251;-74
2021/07/17 10:53:54;;;;;;;4.40;2.78;;;;;;;20.08;71.08;93085.69;2051780;70;20190;-73
2021/07/17 10:56:44;;;;;;;3.30;3.00;;;;;;;20.05;72.42;93079.16;2064524;69;20142;-72
2021/07/17 10:59:12;;;;;;;4.30;2.83;;;;;;;20.04;70.06;93072.00;2049999;70;20153;-72
2021/07/17 11:02:11;;;;;;;3.88;3.25;;;;;;;20.13;71.78;93070.13;2051610;70;20138;-75
2021/07/17 11:04:39;;;;;;;4.20;3.50;;;;;;;20.29;71.90;93070.63;2037601;70;20152;-75
2021/07/17 11:07:16;;;;;;;3.75;3.40;;;;;;;20.22;69.02;93073.97;2037755;70;20269;-74
2021/07/17 11:10:05;;;;;;;5.25;3.53;;;;;;;20.56;69.13;93060.00;2037780;70;20324;-80
2021/07/17 11:12:44;;;;;;;3.53;3.22;;;;;;;20.80;67.21;93062.84;2037970;70;20539;-77
2021/07/17 11:15:09;;;;;;;3.92;3.30;;;;;;;20.78;70.00;93065.66;2034971;70;20707;-73
2021/07/17 11:17:54;;;;;;;3.58;3.28;;;;;;;20.75;70.22;93061.25;2037830;70;20142;-76
2021/07/17 11:20:21;;;;;;;5.72;3.55;;;;;;;20.61;69.86;93061.56;2037630;70;20252;-75
2021/07/17 11:23:14;;;;;;;4.65;3.85;;;;;;;20.50;70.67;93065.53;2034920;70;20171;-74
2021/07/17 11:25:52;;;;;;;;;;;;;;;20.54;69.39;93063.53;2038449;70;20996;-74
2021/07/17 11:28:40;;;;;;;3.92;3.50;;;;;;;20.25;69.42;93058.31;2038209;70;20094;-74
2021/07/17 11:31:27;;;;;;;3.78;3.20;;;;;;;20.35;70.66;93064.38;2038177;70;20152;-75
2021/07/17 11:34:17;;;;;;;3.13;2.83;;;;;;;20.34;69.48;93065.03;2038447;70;20151;-79
2021/07/17 11:36:46;;;;;;;3.38;3.05;;;;;;;20.26;72.74;93057.69;2038060;70;20229;-76